Weather observations for the past three days for
King Airport, St. Thomas
| Date | Time (ast) | Wind (mph) | Vis. (mi.) | Weather | Sky Cond. | Temperature (ºF) | Relative Humidity | Wind Chill (°F) | Heat Index (°F) | Pressure | Precipitation (in) | ||||||
|---|---|---|---|---|---|---|---|---|---|---|---|---|---|---|---|---|---|
| Air | Dwpt | 6 hour | altimeter (in) | sea level (mb) | 1 hr | 3 hr | 6 hr | ||||||||||
| Max. | Min. | ||||||||||||||||
| 03 | 20:53 | E 12 | 10.00 | Partly Cloudy | SCT030 | 87.8 | 71.6 | 59% | 94 | 29.99 | 0.0 | ||||||
| 03 | 19:53 | SE 13 | 10.00 | Partly Cloudy | SCT030 | 88 | 73 | 61% | 96 | 29.97 | 1015.8 | ||||||
| 03 | 17:53 | SE 14 | 10.00 | Partly Cloudy | SCT035 | 89.6 | 73.4 | 59% | 98 | 29.95 | 0.0 | ||||||
| 03 | 16:53 | SE 14 | 10.00 | Partly Cloudy | SCT030 | 89.6 | 73.4 | 59% | 98 | 29.95 | 0.0 | ||||||
| 03 | 15:53 | SE 14 | 10.00 | Partly Cloudy | SCT030 | 90 | 73 | 58% | 98 | 29.94 | 1014.7 | ||||||
| 03 | 14:53 | SE 14 | 10.00 | Partly Cloudy | SCT030 | 89.6 | 73.4 | 59% | 98 | 29.95 | 0.0 | ||||||
| 03 | 13:53 | SE 15 | 10.00 | Partly Cloudy | SCT030 | 89.6 | 73.4 | 59% | 98 | 29.96 | 0.0 | ||||||
| 03 | 12:53 | SE 15 | 10.00 | Partly Cloudy | SCT030 | 89.6 | 73.4 | 59% | 98 | 29.98 | 0.0 | ||||||
| 03 | 11:53 | SE 14 | 10.00 | Partly Cloudy | SCT030 | 87.8 | 73.4 | 62% | 96 | 29.99 | 0.0 | ||||||
| 03 | 10:53 | SE 12 | 10.00 | Partly Cloudy | SCT030 | 86 | 73.4 | 66% | 93 | 30.01 | 0.0 | ||||||
| 03 | 08:53 | E 7 | 10.00 | Partly Cloudy | SCT030 | 84.2 | 73.4 | 70% | 91 | 29.99 | 0.0 | ||||||
| 03 | 06:53 | E 6 | 10.00 | Fair | CLR | 80.6 | 75.2 | 84% | 86 | 29.97 | 0.0 | ||||||
| 02 | 20:53 | SE 8 | 10.00 | Partly Cloudy | SCT050 | 82 | 75 | 79% | 89 | 29.98 | 1016.1 | ||||||
| 02 | 19:53 | NE 6 | 10.00 | Partly Cloudy | SCT030 | 84 | 75 | 74% | 92 | 29.97 | 1015.8 | ||||||
| 02 | 18:53 | E 6 | 10.00 | Partly Cloudy | SCT030 | 89.6 | 75.2 | 63% | 100 | 29.97 | 0.0 | ||||||
| 02 | 17:53 | E 6 | 10.00 | Partly Cloudy | SCT030 | 88 | 75 | 66% | 98 | 29.97 | 1015.8 | ||||||
| 02 | 16:53 | E 6 | 10.00 | Partly Cloudy | SCT030 | 91.4 | 75.2 | 59% | 103 | 29.97 | 0.0 | ||||||
| 02 | 15:53 | E 12 | 10.00 | Partly Cloudy | SCT030 | 89.6 | 75.2 | 63% | 100 | 29.97 | 0.0 | ||||||
| 02 | 14:53 | SE 12 | 10.00 | Partly Cloudy | SCT030 | 91 | 75 | 59% | 102 | 29.98 | 1016.1 | ||||||
| 02 | 13:53 | SE 14 | 10.00 | Partly Cloudy | SCT030 | 91.4 | 75.2 | 59% | 103 | 30 | 0.0 | ||||||
| 02 | 12:53 | SE 12 | 10.00 | Rain | SCT030 | 89.6 | 75.2 | 63% | 100 | 30.02 | 0.0 | ||||||
| 02 | 11:53 | SE 12 | 10.00 | Rain | SCT030 | 89.6 | 75.2 | 63% | 100 | 30.03 | 0.0 | ||||||
| 02 | 09:53 | SE 12 | 10.00 | Partly Cloudy | SCT030 | 86 | 75.2 | 70% | 95 | 30.03 | 0.0 | ||||||
| 02 | 08:53 | E 9 | 10.00 | Partly Cloudy | SCT023 | 86 | 75.2 | 70% | 95 | 30.02 | 0.0 | ||||||
| 02 | 07:53 | E 8 | 10.00 | Partly Cloudy | SCT023 | 84.2 | 75.2 | 74% | 92 | 30.02 | 0.0 | ||||||
| 02 | 06:53 | E 7 | 10.00 | Partly Cloudy | SCT030 | 84.2 | 75.2 | 74% | 92 | 30 | 0.0 | ||||||
| 01 | 20:53 | E 12 | 10.00 | NULL | NULL | 0 | 0 | 0% | 30.02 | 0.0 | |||||||
| 01 | 19:53 | E 12 | 10.00 | NULL | NULL | 84 | 75 | 74% | 92 | 29.99 | 1016.4 | ||||||
| 01 | 18:53 | E 6 | 10.00 | Partly Cloudy | SCT030 | 84 | 75 | 74% | 92 | 29.99 | 1016.4 | ||||||
| 01 | 17:53 | E 12 | 10.00 | A Few Clouds | FEW030 | 86 | 75.2 | 70% | 95 | 29.97 | 0.0 | ||||||
| 01 | 16:53 | E 6 | 10.00 | Partly Cloudy | SCT030 | 78.8 | 78.8 | 100% | 83 | 29.96 | 0.0 | ||||||
| 01 | 15:53 | E 12 | 10.00 | Partly Cloudy | SCT030 | 86 | 75.2 | 70% | 95 | 29.96 | 0.0 | ||||||
| 01 | 14:53 | E 12 | 10.00 | Partly Cloudy | SCT030 | 82.4 | 78.8 | 89% | 92 | 29.96 | 0.0 | ||||||
| 01 | 13:53 | E 13 | 10.00 | Partly Cloudy | SCT035 | 87.8 | 75.2 | 66% | 98 | 29.99 | 0.0 | ||||||
| 01 | 12:53 | SE 14 | 10.00 | Partly Cloudy | SCT035 | 87.8 | 73.4 | 62% | 96 | 30.01 | 0.0 | ||||||
| 01 | 11:53 | E 6 | 10.00 | Partly Cloudy | SCT030 | 82.4 | 77 | 84% | 91 | 30.02 | 0.0 | ||||||
| 01 | 10:53 | E 12 | 10.00 | Partly Cloudy | SCT030 | 86 | 78.8 | 79% | 99 | 30.03 | 0.0 | ||||||
| 01 | 09:53 | S 6 | 10.00 | Partly Cloudy | SCT030 | 86 | 0 | 0% | 30.03 | 1017.8 | |||||||
| 01 | 08:53 | E 6 | 10.00 | A Few Clouds | FEW030 | 0 | 0 | 0% | 0 | 0.0 | |||||||
| 01 | 07:53 | E 8 | 10.00 | Partly Cloudy | SCT030 | 82.4 | 75.2 | 79% | 89 | 0 | 0.0 | ||||||
| Date | Time (ast) | Wind (mph) | Vis. (mi.) | Weather | Sky Cond. | Air | Dwpt | Max. | Min. | Relative Humidity | Wind Chill (°F) | Heat Index (°F) | altimeter (in) | sea level (mb) | 1 hr | 3 hr | 6 hr |
| 6 hour | |||||||||||||||||
| Temperature (ºF) | Pressure | Precipitation (in) | |||||||||||||||